Time;durP1;ratioP1;P1;durP2;ratioP2;P2;SDS_P1;SDS_P2;PMS_P1;PMS_P2;Temp;Humidity;BMP_temperature;BMP_pressure;BME280_temperature;BME280_humidity;BME280_pressure;Samples;Min_cycle;Max_cycle;Signal;HPM_P1;HPM_P2
2022/06/06 00:02:30;;;;;;;11.55;7.70;;;;;;;15.25;71.84;99736.39;1705028;84;21085;-70
2022/06/06 00:05:00;;;;;;;14.75;8.43;;;;;;;15.21;71.79;99741.25;1706182;84;21589;-72
2022/06/06 00:07:28;;;;;;;13.43;8.73;;;;;;;15.17;71.66;99739.49;1676109;84;21131;-72
2022/06/06 00:09:58;;;;;;;13.25;7.83;;;;;;;15.14;71.72;99741.58;1705400;82;21098;-70
2022/06/06 00:12:33;;;;;;;14.58;7.80;;;;;;;15.09;72.03;99739.84;1702793;84;21014;-70
2022/06/06 00:15:01;;;;;;;11.18;7.45;;;;;;;15.05;72.49;99741.11;1706555;84;21049;-72
2022/06/06 00:17:30;;;;;;;12.60;7.95;;;;;;;15.03;72.58;99740.64;1705761;84;21007;-70
2022/06/06 00:19:58;;;;;;;15.30;7.85;;;;;;;15.02;72.61;99733.48;1705673;84;21150;-72
2022/06/06 00:22:28;;;;;;;17.27;7.95;;;;;;;15.03;72.89;99737.87;1705969;83;21038;-70
2022/06/06 00:25:01;;;;;;;11.53;6.97;;;;;;;15.03;73.08;99732.31;1705313;83;21050;-70
2022/06/06 00:27:29;;;;;;;12.50;7.47;;;;;;;15.04;73.02;99737.30;1679949;84;21030;-72
2022/06/06 00:30:02;;;;;;;11.75;7.22;;;;;;;15.05;72.94;99736.13;1701879;84;21089;-72
2022/06/06 00:35:20;;;;;;;15.70;6.92;;;;;;;15.00;73.09;99739.12;1705255;84;21089;-72
2022/06/06 00:37:49;;;;;;;9.15;6.25;;;;;;;15.00;73.33;99739.12;1675208;84;21123;-72
2022/06/06 00:40:18;;;;;;;13.55;6.12;;;;;;;14.99;73.52;99735.56;1706065;84;21007;-73
2022/06/06 00:42:48;;;;;;;8.50;5.65;;;;;;;14.99;73.80;99731.97;1706216;83;21115;-73
2022/06/06 00:45:31;;;;;;;9.60;6.45;;;;;;;14.97;74.02;99735.09;1705016;82;21078;-72
2022/06/06 00:48:31;;;;;;;8.85;6.42;;;;;;;14.99;74.22;99741.68;1705131;84;21130;-73
2022/06/06 00:51:12;;;;;;;7.58;6.05;;;;;;;14.99;74.53;99738.34;1703684;84;21070;-72
2022/06/06 00:53:52;;;;;;;11.50;7.25;;;;;;;14.98;74.50;99742.25;1705909;84;21058;-72
2022/06/06 00:56:43;;;;;;;8.85;6.37;;;;;;;14.96;74.68;99739.83;1709416;82;21570;-71
2022/06/06 00:59:16;;;;;;;10.15;6.42;;;;;;;14.94;74.73;99734.40;1705572;84;21562;-70
2022/06/06 01:01:49;;;;;;;7.92;6.05;;;;;;;14.91;74.83;99750.35;1702058;84;21050;-73
2022/06/06 01:04:18;;;;;;;9.88;7.33;;;;;;;14.89;74.92;99745.16;1706165;83;21531;-71
2022/06/06 01:06:45;;;;;;;11.50;6.15;;;;;;;14.89;74.73;99743.77;1673081;84;21083;-70
2022/06/06 01:09:16;;;;;;;15.05;7.03;;;;;;;14.87;74.82;99749.41;1705904;84;21007;-71
2022/06/06 01:11:51;;;;;;;11.12;7.53;;;;;;;14.89;74.73;99749.88;1702296;84;21320;-71
2022/06/06 01:14:21;;;;;;;11.55;7.90;;;;;;;14.88;74.71;99746.28;1705434;84;21121;-73
2022/06/06 01:17:00;;;;;;;13.10;7.83;;;;;;;14.88;74.89;99737.97;1702818;84;21034;-74
2022/06/06 01:19:50;;;;;;;15.00;7.53;;;;;;;14.88;74.96;99744.08;1702730;84;21030;-71
2022/06/06 01:22:55;;;;;;;14.13;8.53;;;;;;;14.87;75.21;99749.41;1704198;84;21694;-71
2022/06/06 01:25:58;;;;;;;12.30;7.87;;;;;;;14.86;75.20;99745.02;1705909;84;21090;-71
2022/06/06 01:28:50;;;;;;;12.55;8.13;;;;;;;14.85;75.08;99744.20;1704906;84;21062;-70
2022/06/06 01:31:41;;;;;;;13.65;7.53;;;;;;;14.85;74.94;99733.11;1704335;84;21070;-73
2022/06/06 01:34:26;;;;;;;10.70;7.60;;;;;;;14.85;74.81;99730.34;1705274;83;21041;-72
2022/06/06 01:36:56;;;;;;;13.18;7.97;;;;;;;14.83;74.70;99743.16;1704172;84;21873;-72
2022/06/06 01:39:31;;;;;;;10.70;6.95;;;;;;;14.80;74.59;99739.70;1702491;84;21023;-72
2022/06/06 01:42:27;;;;;;;9.78;6.75;;;;;;;14.79;74.68;99742.78;1706043;84;21026;-76
2022/06/06 01:45:09;;;;;;;10.35;7.22;;;;;;;14.73;74.68;99742.19;1705804;84;21070;-72
2022/06/06 01:47:51;;;;;;;11.38;6.55;;;;;;;14.70;74.58;99753.41;1726409;83;21024;-71
2022/06/06 01:50:20;;;;;;;13.98;6.95;;;;;;;14.66;74.59;99749.68;1729529;83;21072;-70
2022/06/06 01:52:56;;;;;;;9.65;7.22;;;;;;;14.65;74.61;99750.02;1729790;83;21768;-70
2022/06/06 01:55:25;;;;;;;11.88;7.17;;;;;;;14.63;74.56;99752.32;1729870;83;21103;-70
2022/06/06 01:57:58;;;;;;;10.75;7.10;;;;;;;14.62;74.59;99745.17;1729673;83;21079;-71
2022/06/06 02:00:26;;;;;;;12.23;7.37;;;;;;;14.59;74.60;99746.08;1725734;83;21516;-71
2022/06/06 02:02:54;;;;;;;11.75;8.58;;;;;;;14.57;74.60;99737.85;1730495;81;21036;-74
2022/06/06 02:05:22;;;;;;;8.70;7.08;;;;;;;14.55;75.05;99747.91;1724495;83;22368;-70
2022/06/06 02:07:51;;;;;;;15.72;7.80;;;;;;;14.55;75.40;99752.06;1729268;83;21059;-72
2022/06/06 02:10:23;;;;;;;17.15;6.65;;;;;;;14.55;75.41;99758.99;1728562;83;22222;-71
2022/06/06 02:12:50;;;;;;;21.40;8.35;;;;;;;14.57;75.49;99758.64;1730837;81;21576;-71
2022/06/06 02:15:24;;;;;;;27.85;8.43;;;;;;;14.57;75.64;99756.70;1729447;81;21016;-70
2022/06/06 02:17:54;;;;;;;26.68;9.10;;;;;;;14.57;75.73;99760.85;1727114;83;21211;-71
2022/06/06 02:20:25;;;;;;;20.70;9.00;;;;;;;14.59;75.74;99756.35;1729923;82;21059;-73
2022/06/06 02:22:58;;;;;;;18.85;8.20;;;;;;;14.59;75.89;99755.78;1726317;83;21564;-71
2022/06/06 02:25:29;;;;;;;16.32;7.53;;;;;;;14.56;75.76;99762.02;1725251;82;21033;-71
2022/06/06 02:27:56;;;;;;;12.35;7.50;;;;;;;14.54;75.69;99761.54;1729735;83;21012;-73
2022/06/06 02:30:27;;;;;;;9.35;6.62;;;;;;;14.55;75.54;99767.91;1730022;82;21767;-72
2022/06/06 02:33:01;;;;;;;19.02;8.55;;;;;;;14.55;75.42;99770.67;1729251;83;21500;-72
2022/06/06 02:35:34;;;;;;;15.58;7.50;;;;;;;14.55;75.58;99764.53;1741081;81;21021;-72
2022/06/06 02:38:01;;;;;;;13.03;7.50;;;;;;;14.57;75.50;99770.56;1729378;83;21051;-71
2022/06/06 02:40:30;;;;;;;11.03;8.18;;;;;;;14.59;75.35;99774.38;1725779;83;21142;-72
2022/06/06 02:42:58;;;;;;;9.50;8.25;;;;;;;14.57;75.34;99772.52;1729831;82;21114;-73
2022/06/06 02:45:31;;;;;;;24.55;9.05;;;;;;;14.58;75.54;99769.42;1741162;81;21052;-72
2022/06/06 02:47:59;;;;;;;15.95;7.70;;;;;;;14.62;75.52;99768.73;1708696;83;21102;-71
2022/06/06 02:50:31;;;;;;;14.40;7.05;;;;;;;14.64;75.55;99774.76;1705861;83;21058;-75
2022/06/06 02:52:59;;;;;;;9.55;7.22;;;;;;;14.66;75.67;99773.25;1698879;83;21022;-73
2022/06/06 02:55:31;;;;;;;13.43;7.35;;;;;;;14.69;75.75;99771.17;1706406;83;21108;-70
2022/06/06 02:58:01;;;;;;;11.25;7.22;;;;;;;14.72;75.76;99770.48;1675509;84;21066;-73
2022/06/06 03:00:35;;;;;;;10.45;8.35;;;;;;;14.74;75.81;99764.59;1702063;84;21550;-70
2022/06/06 03:03:04;;;;;;;17.05;8.40;;;;;;;14.77;75.88;99768.09;1706127;84;21082;-71
2022/06/06 03:06:14;;;;;;;12.43;8.78;;;;;;;14.81;75.86;99766.84;1706566;84;21559;-71
2022/06/06 03:09:27;;;;;;;11.12;9.00;;;;;;;14.82;75.93;99769.27;1672874;84;21016;-72
2022/06/06 03:12:30;;;;;;;13.18;8.83;;;;;;;14.86;76.04;99772.16;1703218;83;21511;-73
2022/06/06 03:15:19;;;;;;;11.75;8.35;;;;;;;14.88;76.29;99773.20;1704134;84;21066;-72
2022/06/06 03:21:27;;;;;;;12.80;8.48;;;;;;;14.94;76.91;99776.80;1705944;84;21064;-72
2022/06/06 03:24:33;;;;;;;13.32;9.53;;;;;;;15.03;77.27;99773.15;1703289;84;21173;-73
2022/06/06 03:27:17;;;;;;;16.95;9.80;;;;;;;15.08;77.59;99770.15;1704155;83;21057;-69
2022/06/06 03:30:02;;;;;;;12.98;9.23;;;;;;;15.16;77.91;99767.84;1669525;84;21042;-72
2022/06/06 03:32:59;;;;;;;12.47;8.25;;;;;;;15.24;78.14;99774.43;1676568;84;21117;-72
2022/06/06 03:35:59;;;;;;;12.03;8.08;;;;;;;15.33;78.36;99772.94;1705971;84;21059;-72
2022/06/06 03:38:47;;;;;;;12.55;8.20;;;;;;;15.43;78.57;99775.83;1704998;84;21136;-71
2022/06/06 03:41:29;;;;;;;17.75;9.08;;;;;;;15.53;79.05;99778.70;1705120;84;21065;-70
2022/06/06 03:44:35;;;;;;;11.70;8.48;;;;;;;15.59;79.66;99781.50;1689054;82;21041;-74
2022/06/06 03:47:34;;;;;;;13.83;9.53;;;;;;;15.64;80.08;99787.39;1704764;82;21006;-73
2022/06/06 03:50:32;;;;;;;13.88;8.28;;;;;;;15.72;80.57;99779.52;1707078;82;21685;-73
2022/06/06 03:53:39;;;;;;;15.32;8.75;;;;;;;15.82;80.70;99781.82;1684090;84;21116;-70
2022/06/06 03:56:29;;;;;;;10.75;7.20;;;;;;;15.96;80.91;99779.81;1690065;84;20975;-75
2022/06/06 03:59:00;;;;;;;15.38;7.58;;;;;;;16.11;80.95;99780.51;1704789;84;21074;-71
2022/06/06 04:01:27;;;;;;;13.15;7.87;;;;;;;16.24;80.81;99778.49;1705001;84;21042;-70
2022/06/06 04:03:54;;;;;;;12.47;8.58;;;;;;;16.37;80.89;99781.23;1705247;84;21058;-71
2022/06/06 04:06:22;;;;;;;14.75;7.67;;;;;;;16.47;80.86;99786.88;1706305;83;22053;-72
2022/06/06 04:08:51;;;;;;;8.30;6.70;;;;;;;16.58;80.67;99784.41;1676344;84;21101;-70
2022/06/06 04:11:58;;;;;;;10.78;7.15;;;;;;;16.70;80.37;99778.76;1709016;82;21066;-73
2022/06/06 04:14:55;;;;;;;9.60;6.08;;;;;;;16.83;80.23;99782.30;1705804;84;21050;-69
2022/06/06 04:17:51;;;;;;;12.13;6.30;;;;;;;16.98;79.78;99786.84;1704160;84;21094;-71
2022/06/06 04:20:40;;;;;;;11.22;5.78;;;;;;;17.10;79.16;99784.59;1705511;83;21138;-71
2022/06/06 04:23:29;;;;;;;8.38;5.42;;;;;;;17.21;78.61;99785.70;1702315;84;21587;-70
2022/06/06 04:26:21;;;;;;;13.68;5.75;;;;;;;17.32;78.25;99782.34;1706119;83;21559;-71
2022/06/06 04:29:28;;;;;;;7.28;4.22;;;;;;;17.44;77.69;99775.88;1704342;84;21026;-71
2022/06/06 04:32:03;;;;;;;5.47;4.58;;;;;;;17.55;76.87;99781.71;1702609;84;21039;-69
2022/06/06 04:34:58;;;;;;;6.40;3.80;;;;;;;17.66;76.30;99791.12;1704539;84;21720;-69
2022/06/06 04:38:13;;;;;;;5.33;4.00;;;;;;;17.74;75.27;99787.33;1702159;84;21103;-71
2022/06/06 04:40:51;;;;;;;5.22;3.67;;;;;;;17.85;74.13;99788.98;1703579;84;21010;-71
2022/06/06 04:43:49;;;;;;;3.92;3.12;;;;;;;17.93;71.88;99796.12;1703195;84;21492;-69
2022/06/06 04:46:33;;;;;;;3.62;2.83;;;;;;;17.99;71.07;99793.26;1702151;84;21106;-72
2022/06/06 04:49:01;;;;;;;3.55;2.75;;;;;;;18.08;69.26;99797.23;1678472;85;21081;-73
2022/06/06 04:51:28;;;;;;;4.50;2.55;;;;;;;18.14;67.37;99801.38;1652848;85;21019;-69
2022/06/06 04:53:58;;;;;;;3.35;2.70;;;;;;;18.19;66.86;99801.09;1677441;85;21590;-72
2022/06/06 04:56:28;;;;;;;4.33;2.33;;;;;;;18.23;65.27;99799.77;1677344;84;21059;-71
2022/06/06 04:58:59;;;;;;;4.53;2.42;;;;;;;18.28;65.04;99798.67;1659294;85;21053;-71
2022/06/06 05:01:26;;;;;;;4.28;3.22;;;;;;;18.30;63.11;99797.14;1681308;83;21143;-71
2022/06/06 05:03:54;;;;;;;6.28;2.52;;;;;;;18.32;63.41;99801.74;1681559;83;21061;-72
2022/06/06 05:06:43;;;;;;;4.35;2.58;;;;;;;18.36;63.18;99804.61;1678229;83;21113;-70
2022/06/06 05:09:57;;;;;;;6.65;2.77;;;;;;;18.44;63.24;99802.19;1649377;85;21104;-70
2022/06/06 05:12:58;;;;;;;;;;;;;;;18.53;62.80;99806.16;1653269;85;21083;-70
2022/06/06 05:15:45;;;;;;;4.22;2.52;;;;;;;18.59;62.02;99805.28;1648826;85;21152;-70
2022/06/06 05:18:41;;;;;;;3.27;2.95;;;;;;;18.66;60.40;99807.41;1635114;86;21522;-70
2022/06/06 05:22:05;;;;;;;7.08;3.15;;;;;;;18.70;59.71;99808.27;1680933;83;21023;-70
2022/06/06 05:25:06;;;;;;;3.83;2.67;;;;;;;18.76;59.82;99812.97;1620954;86;21612;-70
2022/06/06 05:27:51;;;;;;;7.92;3.27;;;;;;;18.83;59.45;99815.91;1646547;87;21042;-72
2022/06/06 05:30:46;;;;;;;3.50;1.77;;;;;;;18.91;58.74;99822.41;1647286;87;21593;-73
2022/06/06 05:33:33;;;;;;;5.58;2.08;;;;;;;18.99;58.03;99819.97;1646810;86;21123;-71
2022/06/06 05:36:33;;;;;;;2.37;1.90;;;;;;;19.08;56.57;99825.32;1616836;88;21545;-71
2022/06/06 05:39:11;;;;;;;3.27;2.08;;;;;;;19.15;55.77;99828.28;1588282;88;21097;-72
2022/06/06 05:42:18;;;;;;;6.65;2.50;;;;;;;19.24;55.76;99833.63;1647322;87;21091;-71
2022/06/06 05:44:54;;;;;;;5.97;2.00;;;;;;;19.29;54.93;99830.53;1629597;86;21062;-72
2022/06/06 05:48:03;;;;;;;5.10;1.95;;;;;;;19.34;54.87;99832.20;1647316;84;21113;-70
2022/06/06 05:50:50;;;;;;;9.43;2.25;;;;;;;19.39;54.79;99826.88;1651061;85;21085;-72
2022/06/06 05:53:35;;;;;;;2.62;1.85;;;;;;;19.46;54.37;99826.39;1679044;83;21081;-70
2022/06/06 05:56:36;;;;;;;3.22;1.70;;;;;;;19.54;54.23;99830.71;1653176;86;21023;-73
2022/06/06 05:59:59;;;;;;;2.95;1.82;;;;;;;19.63;54.45;99834.65;1677248;83;21610;-73
2022/06/06 06:02:49;;;;;;;8.50;2.22;;;;;;;19.70;54.02;99828.57;1669347;85;21049;-72
2022/06/06 06:05:34;;;;;;;7.75;2.15;;;;;;;19.77;52.67;99835.48;1677780;85;21054;-71
2022/06/06 06:08:34;;;;;;;5.22;1.75;;;;;;;19.83;52.28;99836.76;1711083;83;21535;-72
2022/06/06 06:11:45;;;;;;;6.15;1.70;;;;;;;19.90;52.33;99838.85;1711442;83;21531;-70
2022/06/06 06:14:37;;;;;;;8.28;2.00;;;;;;;19.97;52.30;99832.56;1695465;83;21134;-70
2022/06/06 06:17:09;;;;;;;3.72;2.00;;;;;;;20.05;52.07;99842.11;1711638;83;21456;-71
2022/06/06 06:19:48;;;;;;;3.22;1.77;;;;;;;20.13;51.67;99839.42;1714168;83;20977;-73
2022/06/06 06:22:15;;;;;;;6.78;2.12;;;;;;;20.21;51.52;99838.33;1688457;83;21507;-70
2022/06/06 06:24:46;;;;;;;4.55;1.65;;;;;;;20.29;51.78;99842.02;1714421;83;20979;-74
2022/06/06 06:27:12;;;;;;;4.90;1.82;;;;;;;20.34;50.83;99849.27;1713392;83;21763;-71
2022/06/06 06:29:47;;;;;;;2.05;1.85;;;;;;;20.38;50.37;99850.95;1685429;83;21316;-72
2022/06/06 06:32:38;;;;;;;3.40;1.50;;;;;;;20.43;49.63;99847.00;1707865;83;21185;-71
2022/06/06 06:35:32;;;;;;;1.50;1.40;;;;;;;20.48;49.59;99852.27;1710344;83;21054;-75
2022/06/06 06:38:31;;;;;;;4.03;1.82;;;;;;;20.54;49.27;99849.34;1710700;83;21060;-70
2022/06/06 06:41:12;;;;;;;3.80;1.67;;;;;;;20.62;49.49;99850.25;1713837;82;20994;-73
2022/06/06 06:44:07;;;;;;;3.90;1.55;;;;;;;20.67;48.68;99851.89;1711172;83;21060;-74
2022/06/06 06:46:57;;;;;;;2.45;2.00;;;;;;;20.71;48.73;99851.33;1713579;83;21109;-71
2022/06/06 06:49:38;;;;;;;2.35;1.52;;;;;;;20.78;48.51;99846.41;1703109;82;21057;-72
2022/06/06 06:52:31;;;;;;;2.45;1.67;;;;;;;20.83;48.32;99854.47;1701404;84;21010;-70
2022/06/06 06:55:12;;;;;;;3.55;1.80;;;;;;;20.88;48.18;99854.73;1703645;84;21817;-72
2022/06/06 06:58:08;;;;;;;3.35;1.82;;;;;;;20.92;48.36;99856.37;1700467;84;21031;-74
2022/06/06 07:00:52;;;;;;;3.60;2.25;;;;;;;20.98;47.39;99849.06;1703355;84;21697;-72
2022/06/06 07:10:03;;;;;;;2.85;1.80;;;;;;;21.17;46.81;99862.08;1702726;84;21602;-70
2022/06/06 07:13:07;;;;;;;4.65;2.02;;;;;;;21.19;46.75;99855.47;1702422;84;21027;-72
2022/06/06 07:16:02;;;;;;;12.53;2.47;;;;;;;21.25;47.70;99858.73;1700267;84;21084;-73
2022/06/06 07:18:33;;;;;;;2.12;1.80;;;;;;;21.34;47.09;99862.63;1702182;84;21034;-71
2022/06/06 07:21:08;;;;;;;5.83;1.62;;;;;;;21.34;46.24;99862.63;1700781;84;21027;-72
2022/06/06 07:23:40;;;;;;;2.65;1.77;;;;;;;21.36;45.55;99861.03;1679482;84;21125;-72
2022/06/06 07:26:08;;;;;;;1.95;1.47;;;;;;;21.42;46.15;99871.89;1675099;84;21038;-73
2022/06/06 07:28:34;;;;;;;2.12;1.52;;;;;;;21.47;46.43;99863.13;1704237;84;21078;-72
2022/06/06 07:31:20;;;;;;;1.98;1.60;;;;;;;21.57;46.06;99865.23;1700591;84;21006;-72
2022/06/06 07:34:23;;;;;;;3.47;1.90;;;;;;;21.67;45.78;99863.70;1701237;84;21085;-72
2022/06/06 07:37:05;;;;;;;5.37;2.27;;;;;;;21.77;45.96;99875.59;1701436;84;21516;-73
2022/06/06 07:40:02;;;;;;;3.22;2.00;;;;;;;21.88;45.47;99864.50;1702156;84;21575;-74
2022/06/06 07:42:53;;;;;;;3.83;1.70;;;;;;;22.01;44.74;99865.56;1704446;84;21019;-74
2022/06/06 07:45:34;;;;;;;6.55;1.90;;;;;;;21.99;45.45;99860.97;1675601;84;21034;-74
2022/06/06 07:48:43;;;;;;;5.05;1.98;;;;;;;21.92;44.92;99869.33;1704585;82;22151;-72
2022/06/06 07:51:43;;;;;;;4.92;1.62;;;;;;;21.87;44.21;99873.31;1706006;84;21809;-74
2022/06/06 07:54:58;;;;;;;2.22;1.47;;;;;;;21.81;44.72;99883.26;1710027;83;21113;-69
2022/06/06 07:57:45;;;;;;;1.62;1.52;;;;;;;21.91;45.04;99888.73;1699879;84;21557;-71
2022/06/06 08:00:19;;;;;;;3.72;1.50;;;;;;;22.05;44.25;99891.66;1703537;84;21110;-71
2022/06/06 08:03:08;;;;;;;3.52;1.50;;;;;;;22.11;44.44;99885.88;1712585;83;21030;-70
2022/06/06 08:06:14;;;;;;;3.37;1.50;;;;;;;22.17;43.16;99879.90;1704846;84;22192;-71
2022/06/06 08:09:04;;;;;;;1.30;1.17;;;;;;;22.20;44.20;99873.50;1705883;82;21100;-73
2022/06/06 08:11:58;;;;;;;1.52;1.42;;;;;;;22.24;42.44;99875.15;1698753;84;21097;-74
2022/06/06 08:14:58;;;;;;;4.95;1.50;;;;;;;22.30;41.80;99867.15;1703250;84;21022;-71
2022/06/06 08:20:41;;;;;;;2.87;1.57;;;;;;;22.36;41.21;99874.60;1702466;84;21488;-72
2022/06/06 08:23:10;;;;;;;20.35;2.33;;;;;;;22.41;42.71;99874.23;1703443;84;21115;-73
2022/06/06 08:25:40;;;;;;;2.10;1.60;;;;;;;22.54;42.89;99878.08;1705931;84;21601;-74
2022/06/06 08:28:14;;;;;;;3.15;1.90;;;;;;;22.67;42.47;99867.35;1701887;84;20995;-73
2022/06/06 08:30:46;;;;;;;1.72;1.60;;;;;;;22.81;43.64;99860.38;1706112;83;21059;-71
2022/06/06 08:33:14;;;;;;;6.65;1.40;;;;;;;22.98;43.79;99864.44;1706250;84;21102;-71
2022/06/06 08:36:30;;;;;;;2.98;1.45;;;;;;;23.07;42.96;99857.03;1671439;84;21121;-71
2022/06/06 08:39:27;;;;;;;4.42;1.57;;;;;;;23.07;40.72;99851.42;1704223;83;21007;-72
2022/06/06 08:42:37;;;;;;;5.62;1.60;;;;;;;23.11;42.27;99854.23;1706506;84;21050;-70
2022/06/06 08:45:44;;;;;;;2.05;1.77;;;;;;;23.20;41.46;99852.45;1706210;84;21836;-71
2022/06/06 08:48:46;;;;;;;1.85;1.30;;;;;;;23.29;41.56;99866.90;1705257;82;21106;-74
2022/06/06 08:51:47;;;;;;;4.75;1.15;;;;;;;23.45;41.99;99855.91;1699815;84;21067;-76
2022/06/06 08:54:49;;;;;;;2.67;1.75;;;;;;;23.57;41.62;99856.11;1701006;84;21057;-73
2022/06/06 08:57:52;;;;;;;2.40;1.42;;;;;;;23.55;38.95;99855.11;1706029;83;21054;-71
2022/06/06 09:00:31;;;;;;;3.08;1.30;;;;;;;23.21;37.72;99849.23;1700572;84;21037;-74
2022/06/06 09:03:54;;;;;;;3.70;1.30;;;;;;;23.04;38.48;99850.81;1705338;84;21169;-73
2022/06/06 09:06:49;;;;;;;3.33;1.15;;;;;;;23.09;38.00;99854.64;1703160;84;21019;-72
2022/06/06 09:09:43;;;;;;;2.02;1.55;;;;;;;23.00;38.76;99849.20;1703944;84;21019;-73
2022/06/06 09:12:59;;;;;;;4.95;1.30;;;;;;;23.08;40.30;99850.20;1707023;83;21082;-72
2022/06/06 09:16:04;;;;;;;8.93;1.50;;;;;;;23.25;40.81;99845.03;1696157;84;21069;-73
2022/06/06 09:19:10;;;;;;;1.70;1.40;;;;;;;23.46;39.53;99844.84;1705955;84;21346;-71
2022/06/06 09:22:07;;;;;;;2.65;1.30;;;;;;;23.65;39.88;99847.87;1706188;84;21058;-72
2022/06/06 09:25:13;;;;;;;3.15;1.47;;;;;;;23.79;38.12;99844.25;1698984;84;21585;-71
2022/06/06 09:28:23;;;;;;;2.83;1.75;;;;;;;23.85;39.21;99851.66;1705920;84;21350;-72
2022/06/06 09:31:27;;;;;;;2.67;1.90;;;;;;;23.88;39.17;99843.84;1702851;83;21006;-74
2022/06/06 09:34:18;;;;;;;1.67;1.50;;;;;;;24.06;39.50;99840.98;1695538;84;21038;-73
2022/06/06 09:37:06;;;;;;;1.52;1.42;;;;;;;24.30;39.75;99839.13;1702681;84;21073;-73
2022/06/06 09:39:57;;;;;;;4.67;1.67;;;;;;;24.49;39.33;99845.49;1674685;84;21049;-74
2022/06/06 09:42:46;;;;;;;6.65;1.30;;;;;;;24.39;36.67;99848.55;1676434;84;21718;-74
2022/06/06 09:45:31;;;;;;;1.10;1.00;;;;;;;24.07;36.59;99840.39;1664421;84;21006;-73
2022/06/06 09:48:24;;;;;;;7.00;1.20;;;;;;;23.72;35.09;99845.66;1704340;84;21054;-71
2022/06/06 09:51:43;;;;;;;1.45;1.20;;;;;;;23.51;35.87;99842.27;1694558;83;21038;-72
2022/06/06 10:01:45;;;;;;;0.95;0.95;;;;;;;23.89;39.03;99837.59;1710507;83;21106;-70
2022/06/06 10:04:59;;;;;;;1.00;0.98;;;;;;;24.05;39.02;99834.36;1709238;83;21573;-72
2022/06/06 10:07:45;;;;;;;8.80;1.30;;;;;;;24.26;38.83;99831.31;1713179;82;21050;-72
2022/06/06 10:10:39;;;;;;;1.52;1.27;;;;;;;24.50;38.78;99830.19;1701475;83;21054;-71
2022/06/06 10:13:49;;;;;;;1.17;1.07;;;;;;;24.70;39.37;99826.30;1700785;83;21027;-70
2022/06/06 10:16:37;;;;;;;5.12;1.40;;;;;;;24.90;38.92;99830.00;1709272;83;21045;-73
2022/06/06 10:19:39;;;;;;;2.72;1.20;;;;;;;25.01;37.01;99823.71;1696483;83;21022;-72
2022/06/06 10:22:45;;;;;;;4.85;1.32;;;;;;;25.05;35.44;99823.69;1706869;83;21018;-71
2022/06/06 10:25:44;;;;;;;3.75;1.05;;;;;;;25.06;35.34;99830.92;1707785;83;21495;-70
2022/06/06 10:28:54;;;;;;;4.72;1.07;;;;;;;25.13;34.50;99830.09;1708262;83;21003;-70
2022/06/06 10:32:00;;;;;;;1.40;0.98;;;;;;;25.20;34.12;99825.80;1709597;83;21037;-70
2022/06/06 10:35:11;;;;;;;14.63;1.72;;;;;;;25.18;32.24;99822.59;1710987;83;21836;-71
2022/06/06 10:38:10;;;;;;;3.27;1.70;;;;;;;25.00;34.42;99829.77;1693454;83;21523;-71
2022/06/06 10:40:51;;;;;;;1.92;1.35;;;;;;;24.92;35.78;99822.75;1709966;83;21052;-72
2022/06/06 10:44:04;;;;;;;4.22;1.20;;;;;;;24.88;33.65;99810.70;1706582;83;21102;-71
2022/06/06 10:46:37;;;;;;;1.80;1.17;;;;;;;24.78;34.05;99813.78;1707529;83;20991;-74
2022/06/06 10:49:45;;;;;;;2.08;1.27;;;;;;;24.80;34.37;99813.37;1708736;82;21245;-73
2022/06/06 10:52:46;;;;;;;3.55;1.17;;;;;;;24.84;31.83;99811.94;1705684;84;21019;-72
2022/06/06 10:56:11;;;;;;;1.17;1.07;;;;;;;24.80;32.06;99811.95;1677620;84;21172;-71
2022/06/06 10:59:16;;;;;;;2.02;1.10;;;;;;;24.65;32.52;99802.80;1704028;84;21117;-70
2022/06/06 11:02:19;;;;;;;1.37;0.93;;;;;;;24.54;32.55;99805.05;1704963;83;21650;-72
2022/06/06 11:05:03;;;;;;;1.70;1.40;;;;;;;24.64;31.26;99804.80;1680500;84;21050;-72
2022/06/06 11:08:20;;;;;;;2.25;0.70;;;;;;;24.70;32.99;99802.36;1702933;84;21027;-70
2022/06/06 11:11:44;;;;;;;1.10;0.88;;;;;;;24.87;32.92;99802.03;1648642;87;21206;-72
2022/06/06 11:14:37;;;;;;;1.25;1.15;;;;;;;25.06;32.73;99795.70;1649813;85;21109;-72
2022/06/06 11:17:58;;;;;;;3.08;1.00;;;;;;;25.24;33.04;99799.81;1649170;87;21071;-72
2022/06/06 11:21:22;;;;;;;1.82;1.07;;;;;;;25.37;31.69;99795.87;1701418;84;21840;-71
2022/06/06 11:24:03;;;;;;;4.85;1.10;;;;;;;25.39;32.84;99793.44;1705175;84;21054;-71
2022/06/06 11:26:48;;;;;;;1.00;0.90;;;;;;;25.58;32.80;99786.22;1705984;84;21097;-72
2022/06/06 11:29:48;;;;;;;1.62;1.10;;;;;;;25.54;31.09;99797.52;1702496;84;21023;-72
2022/06/06 11:32:59;;;;;;;1.35;1.10;;;;;;;25.45;32.52;99779.70;1693218;84;21573;-72
2022/06/06 11:35:45;;;;;;;1.27;1.15;;;;;;;25.60;32.97;99780.96;1706019;84;21027;-72
2022/06/06 11:39:12;;;;;;;1.98;1.20;;;;;;;25.74;32.37;99776.60;1706124;83;21079;-72
2022/06/06 11:42:24;;;;;;;3.30;1.45;;;;;;;25.79;32.49;99775.97;1668066;84;21114;-74
2022/06/06 11:45:35;;;;;;;47.55;4.92;;;;;;;25.69;34.17;99777.69;1706127;84;21015;-73
2022/06/06 11:48:34;;;;;;;4.08;0.95;;;;;;;25.75;33.31;99781.05;1706162;84;21070;-72
2022/06/06 11:51:21;;;;;;;4.85;0.95;;;;;;;25.89;32.65;99784.93;1655144;84;21027;-71
2022/06/06 11:54:36;;;;;;;2.92;0.98;;;;;;;25.88;29.88;99781.30;1702216;84;21109;-72
2022/06/06 11:57:29;;;;;;;1.67;1.15;;;;;;;25.76;31.33;99784.05;1706425;84;21589;-73
2022/06/06 12:00:41;;;;;;;1.70;0.90;;;;;;;25.76;31.69;99783.27;1706427;84;21023;-73
2022/06/06 12:03:30;;;;;;;3.10;1.20;;;;;;;25.87;30.85;99781.13;1712132;82;21140;-70
2022/06/06 12:06:35;;;;;;;1.17;1.00;;;;;;;26.01;30.27;99775.13;1702934;84;21257;-73
2022/06/06 12:09:42;;;;;;;3.37;1.30;;;;;;;26.08;32.27;99778.47;1706847;83;21023;-72
2022/06/06 12:12:32;;;;;;;9.48;2.50;;;;;;;26.09;32.13;99770.18;1706004;84;21066;-72
2022/06/06 12:15:16;;;;;;;1.55;1.30;;;;;;;26.15;33.23;99772.75;1702996;84;21075;-72
2022/06/06 12:17:57;;;;;;;2.22;1.82;;;;;;;26.08;33.82;99772.22;1706377;82;21078;-71
2022/06/06 12:21:12;;;;;;;1.52;1.10;;;;;;;26.13;34.00;99772.36;1704150;84;21591;-75
2022/06/06 12:24:23;;;;;;;3.10;1.20;;;;;;;26.15;33.42;99771.94;1705328;84;21062;-71
2022/06/06 12:27:20;;;;;;;2.52;1.70;;;;;;;26.21;33.25;99775.89;1706269;84;21091;-70
2022/06/06 12:30:37;;;;;;;2.42;1.17;;;;;;;26.32;31.94;99763.87;1706153;84;21007;-70
2022/06/06 12:33:18;;;;;;;1.42;1.30;;;;;;;26.42;32.08;99772.03;1706038;84;21174;-71
2022/06/06 12:36:31;;;;;;;1.72;1.40;;;;;;;26.25;32.17;99766.77;1707762;83;21097;-70
2022/06/06 12:39:11;;;;;;;2.15;1.60;;;;;;;26.08;31.96;99762.95;1705981;84;21030;-70
2022/06/06 12:42:03;;;;;;;3.22;1.17;;;;;;;26.01;32.69;99766.05;1702910;84;21531;-71
2022/06/06 12:45:26;;;;;;;2.80;1.30;;;;;;;25.87;31.74;99765.60;1704752;84;21062;-72
2022/06/06 12:48:16;;;;;;;2.87;1.52;;;;;;;25.72;33.01;99764.96;1700692;84;21634;-71
2022/06/06 12:51:23;;;;;;;24.65;2.17;;;;;;;25.76;32.93;99761.48;1704226;82;21914;-70
2022/06/06 12:54:10;;;;;;;2.95;1.60;;;;;;;25.79;31.56;99757.63;1704890;84;21066;-71
2022/06/06 12:56:59;;;;;;;2.62;1.10;;;;;;;25.90;30.51;99754.07;1706740;82;21114;-73
2022/06/06 13:00:03;;;;;;;2.40;1.40;;;;;;;25.88;31.01;99752.27;1704222;84;21055;-70
2022/06/06 13:02:49;;;;;;;2.80;1.25;;;;;;;25.95;31.11;99749.37;1705976;84;21085;-72
2022/06/06 13:05:56;;;;;;;6.10;1.72;;;;;;;26.05;32.34;99752.51;1706001;84;21755;-71
2022/06/06 13:08:58;;;;;;;5.90;1.52;;;;;;;26.13;32.26;99748.38;1706113;84;21054;-72
2022/06/06 13:11:50;;;;;;;3.35;1.27;;;;;;;26.12;32.56;99745.34;1704421;83;21151;-74
2022/06/06 13:15:03;;;;;;;2.37;1.37;;;;;;;26.11;32.09;99746.58;1705909;84;21073;-74
2022/06/06 13:18:02;;;;;;;3.95;1.60;;;;;;;26.16;31.90;99746.11;1706324;84;21018;-71
2022/06/06 13:20:50;;;;;;;7.05;1.80;;;;;;;26.07;33.36;99741.58;1673967;84;21886;-72
2022/06/06 13:23:44;;;;;;;3.98;1.52;;;;;;;26.14;33.33;99744.31;1706059;84;21063;-70
2022/06/06 13:26:50;;;;;;;1.92;1.40;;;;;;;26.29;32.53;99739.28;1704742;84;21088;-71
2022/06/06 13:29:31;;;;;;;2.17;1.37;;;;;;;26.29;31.45;99735.67;1703376;84;21034;-73
2022/06/06 13:32:38;;;;;;;3.02;1.40;;;;;;;25.98;30.68;99731.59;1702582;84;21042;-72
2022/06/06 13:35:14;;;;;;;1.07;0.95;;;;;;;25.89;32.88;99728.50;1705730;84;21224;-72
2022/06/06 13:38:27;;;;;;;2.08;1.40;;;;;;;26.02;32.45;99734.37;1702717;84;22307;-71